Terminal Aerodrome Forecast
Issued by NWS

Home | Current Version | Previous Version | Text Only | Print | Product List | Glossary On
Versions: 1 2 3 4 5 6 7 8 9 10 11 12
000
FTUS42 TJSJ 021742
TAFJPS
TAF
TJPS 021742Z 0218/0318 13012KT P6SM SCT030 SCT060
     FM022330 08007KT P6SM VCSH FEW030 SCT060
     FM031500 13012KT P6SM FEW030 SCT060
      AMD NOT SKED TIL 030300=

USA.gov is the U.S. government's official web portal to all federal, state and local government web resources and services.